• Join FlightAware (Why Join?)
  • Login
  • US Flag 
12:15AM EDT


 

Airport Tracker/Info


-or-


 

Live Flight TrackerFlight Track Log ✈ AAY862 ✈ 15-Jun-2014 ✈ KPIE - KCID

Flight Track Log - Related Links

Times and Time Zones

All times are in EDT time to prevent confusion due to time zone crossing. See the AAY862 flight status page for this flight to view local times or setup timezone preferences in your user account.

Time Position Orientation Groundspeed Altitude Reporting Facility
EDT Latitude Longitude Course Direction KTS MPH feet Rate Location/Type
02:04PM 27.9333 -82.6833 270° West 181 208 900  Level Tampa TRACON
02:04PM 27.9333 -82.7000 270° West 160 184 1,500 2,100 Climbing Tampa TRACON
02:05PM 27.9833 -82.6833 16° North 204 235 3,700 1,860 Climbing Tampa TRACON
02:06PM 28.0667 -82.6833 360° North 273 314 5,500 2,220 Climbing Tampa TRACON
02:08PM 28.1833 -82.7372 338° Northwest 270 311 10,200 2,160 Climbing Jacksonville Center
02:09PM 28.2689 -82.7583 348° North 284 327 11,600 1,320 Climbing Jacksonville Center
02:10PM 28.3606 -82.8053 336° Northwest 324 373 12,900 1,500 Climbing Jacksonville Center
02:11PM 28.4631 -82.8525 338° Northwest 367 422 14,700 2,100 Climbing Jacksonville Center
02:12PM 28.5736 -82.9019 339° North 402 463 17,100 2,040 Climbing Jacksonville Center
02:13PM 28.6925 -82.9636 336° Northwest 417 480 18,800 1,620 Climbing Jacksonville Center
02:14PM 28.8053 -83.0206 336° Northwest 423 487 20,400 1,620 Climbing Jacksonville Center
02:15PM 28.9178 -83.0847 333° Northwest 433 498 22,100 1,500 Climbing Jacksonville Center
02:16PM 29.0367 -83.1467 336° Northwest 449 517 23,400 1,620 Climbing Jacksonville Center
02:17PM 29.1533 -83.2064 336° Northwest 461 531 25,400 1,260 Climbing Jacksonville Center
02:18PM 29.2722 -83.2686 335° Northwest 461 531 26,000 780 Climbing Jacksonville Center
02:19PM 29.3953 -83.3336 335° Northwest 461 531 27,000 1,140 Climbing Jacksonville Center
02:20PM 29.5097 -83.3983 334° Northwest 461 531 28,300 1,320 Climbing Jacksonville Center
02:21PM 29.6264 -83.4683 332° Northwest 467 537 29,700 840 Climbing Jacksonville Center
02:22PM 29.7283 -83.5264 334° Northwest 467 537 30,000 120 Climbing Jacksonville Center
02:23PM 29.8469 -83.5942 334° Northwest 467 537 30,000  Level Jacksonville Center
02:24PM 29.9594 -83.6597 333° Northwest 467 537 30,000  Level Jacksonville Center
02:25PM 30.0758 -83.7278 333° Northwest 467 537 30,000  Level Jacksonville Center
02:26PM 30.1922 -83.7961 333° Northwest 467 537 30,000  Level Jacksonville Center
02:27PM 30.3067 -83.8622 333° Northwest 467 537 30,000 -60 Level Jacksonville Center
02:28PM 30.4231 -83.9308 333° Northwest 467 537 29,900  Descending Jacksonville Center
02:29PM 30.5353 -83.9994 332° Northwest 467 537 30,000  Climbing Jacksonville Center
02:30PM 30.6475 -84.0661 333° Northwest 462 532 30,000  Level Jacksonville Center
02:31PM 30.7489 -84.1567 322° Northwest 456 525 30,000  Level Jacksonville Center
02:32PM 30.8439 -84.2547 318° Northwest 456 525 30,000  Level Jacksonville Center
02:33PM 30.9408 -84.3531 319° Northwest 456 525 30,000  Level Jacksonville Center
02:34PM 31.0336 -84.4539 317° Northwest 462 532 30,000  Level Jacksonville Center
02:35PM 31.1306 -84.5528 319° Northwest 462 532 30,000  Level Jacksonville Center
02:36PM 31.2317 -84.6369 325° Northwest 462 532 30,000  Level Jacksonville Center
02:38PM 31.4856 -84.7864 333° Northwest 442 509 30,000  Level Atlanta Center
02:39PM 31.6000 -84.8533 334° Northwest 447 514 30,000  Level Atlanta Center
02:40PM 31.7164 -84.9203 334° Northwest 447 514 30,000  Level Atlanta Center
02:41PM 31.8264 -84.9872 333° Northwest 447 514 30,000  Level Atlanta Center
02:42PM 31.9386 -85.0544 333° Northwest 447 514 30,000  Level Atlanta Center
02:43PM 32.0550 -85.1219 334° Northwest 452 520 30,000  Level Atlanta Center
02:44PM 32.1669 -85.1872 334° Northwest 452 520 30,000  Level Atlanta Center
02:45PM 32.2792 -85.2550 333° Northwest 452 520 30,000  Level Atlanta Center
02:46PM 32.3911 -85.3228 333° Northwest 446 513 30,000  Level Atlanta Center
02:47PM 32.5031 -85.3911 333° Northwest 446 513 30,000  Level Atlanta Center
02:48PM 32.6214 -85.4619 333° Northwest 446 513 30,000  Level Atlanta Center
02:49PM 32.7353 -85.5278 334° Northwest 446 513 30,000  Level Atlanta Center
02:50PM 32.8492 -85.5992 332° Northwest 446 513 30,000  Level Atlanta Center
02:51PM 32.9611 -85.6678 333° Northwest 446 513 30,000  Level Atlanta Center
02:52PM 33.0750 -85.7394 332° Northwest 452 520 30,000  Level Atlanta Center
02:53PM 33.1889 -85.8086 333° Northwest 452 520 30,000  Level Atlanta Center
02:54PM 33.3025 -85.8756 334° Northwest 452 520 30,000  Level Atlanta Center
02:55PM 33.4286 -85.9578 331° Northwest 452 520 30,000  Level Atlanta Center
02:56PM 33.5444 -86.0253 334° Northwest 452 520 30,000  Level Atlanta Center
02:57PM 33.6458 -86.0875 333° Northwest 452 520 30,000  Level Atlanta Center
02:58PM 33.7572 -86.1600 332° Northwest 452 520 30,000  Level Atlanta Center
02:59PM 33.8686 -86.2306 332° Northwest 452 520 30,000  Level Atlanta Center
03:00PM 33.9822 -86.3036 332° Northwest 457 526 30,000  Level Atlanta Center
03:01PM 34.0956 -86.3717 334° Northwest 457 526 30,000  Level Atlanta Center
03:02PM 34.2069 -86.4425 332° Northwest 452 520 30,000  Level Atlanta Center
03:03PM 34.3203 -86.5136 333° Northwest 452 520 30,000  Level Atlanta Center
03:04PM 34.4747 -86.6150 332° Northwest 459 528 30,000  Level Memphis Center
03:05PM 34.5872 -86.6867 332° Northwest 460 529 30,000  Level Memphis Center
03:06PM 34.7000 -86.7575 333° Northwest 460 529 30,000  Level Memphis Center
03:07PM 34.8125 -86.8311 332° Northwest 460 529 30,000  Level Memphis Center
03:08PM 34.9261 -86.9039 332° Northwest 460 529 30,000  Level Memphis Center
03:09PM 35.0625 -86.9919 332° Northwest 461 531 30,000  Level Memphis Center
03:10PM 35.1781 -87.0669 332° Northwest 466 536 30,000  Level Memphis Center
03:11PM 35.2936 -87.1408 332° Northwest 469 540 30,000  Level Memphis Center
03:12PM 35.4119 -87.2211 331° Northwest 469 540 30,000  Level Memphis Center
03:14PM 35.5292 -87.2978 332° Northwest 470 541 30,000  Level Memphis Center
03:16PM 35.7636 -87.4517 332° Northwest 470 541 30,000  Level Memphis Center
03:17PM 35.8789 -87.5278 332° Northwest 469 540 30,000  Level Memphis Center
03:18PM 36.0136 -87.6156 332° Northwest 466 536 30,000  Level Memphis Center
03:19PM 36.1275 -87.6919 332° Northwest 463 533 30,000  Level Memphis Center
03:20PM 36.2400 -87.7664 332° Northwest 458 527 30,000  Level Memphis Center
03:21PM 36.3519 -87.8422 331° Northwest 454 522 30,000  Level Memphis Center
03:22PM 36.4642 -87.9167 332° Northwest 454 522 30,000  Level Memphis Center
03:23PM 36.5736 -87.9903 332° Northwest 448 516 30,000  Level Memphis Center
03:24PM 36.6833 -88.0639 332° Northwest 447 514 30,000  Level Memphis Center
03:25PM 36.8053 -88.1478 331° Northwest 445 512 30,000  Level Memphis Center
03:26PM 36.9128 -88.2222 331° Northwest 447 514 30,000  Level Memphis Center
03:27PM 37.0214 -88.2961 331° Northwest 447 514 30,000  Level Memphis Center
03:28PM 37.1294 -88.3697 331° Northwest 446 513 30,000  Level Memphis Center
03:29PM 37.2358 -88.4431 331° Northwest 441 507 30,000  Level Memphis Center
03:30PM 37.3650 -88.5328 331° Northwest 441 507 30,000  Level Memphis Center
03:31PM 37.4719 -88.6075 331° Northwest 441 507 30,000  Level Memphis Center
03:32PM 37.5811 -88.6833 331° Northwest 443 510 30,000  Level Memphis Center
03:33PM 37.6914 -88.7611 331° Northwest 449 517 30,000  Level Memphis Center
03:34PM 37.8022 -88.8381 331° Northwest 452 520 30,000  Level Memphis Center
03:35PM 37.9339 -88.9314 331° Northwest 452 520 30,000  Level Memphis Center
03:36PM 38.0461 -89.0089 331° Northwest 455 524 30,000  Level Memphis Center
03:38PM 38.1728 -89.1011 330° Northwest 448 516 30,000  Level Kansas City Center
03:39PM 38.3008 -89.1911 331° Northwest 440 506 30,000  Level Kansas City Center
03:40PM 38.3933 -89.2564 331° Northwest 441 507 30,000  Level Kansas City Center
03:41PM 38.5178 -89.3453 331° Northwest 442 509 30,000  Level Kansas City Center
03:42PM 38.6361 -89.4300 331° Northwest 453 521 30,000  Level Kansas City Center
03:43PM 38.7453 -89.5103 330° Northwest 452 520 30,000  Level Kansas City Center
03:44PM 38.8561 -89.5894 331° Northwest 453 521 30,000  Level Kansas City Center
03:45PM 38.9686 -89.6719 330° Northwest 453 521 30,000  Level Kansas City Center
03:46PM 39.0797 -89.7525 331° Northwest 453 521 30,000  Level Kansas City Center
03:47PM 39.1983 -89.8378 331° Northwest 458 527 30,000  Level Kansas City Center
03:48PM 39.3083 -89.9200 330° Northwest 461 531 30,000  Level Kansas City Center
03:49PM 39.4178 -90.0000 331° Northwest 459 528 30,000  Level Kansas City Center
03:50PM 39.5264 -90.0808 330° Northwest 458 527 30,000  Level Kansas City Center
03:51PM 39.6569 -90.1778 330° Northwest 455 524 30,000  Level Kansas City Center
03:52PM 39.7619 -90.2572 330° Northwest 455 524 30,000  Level Kansas City Center
03:53PM 39.8733 -90.3400 330° Northwest 455 524 30,000  Level Kansas City Center
03:54PM 39.9850 -90.4261 329° Northwest 458 527 30,000  Level Kansas City Center
03:55PM 40.0978 -90.5108 330° Northwest 463 533 30,000  Level Kansas City Center
03:56PM 40.2075 -90.5944 330° Northwest 461 531 30,000  Level Kansas City Center
03:57PM 40.3175 -90.6781 330° Northwest 459 528 30,000  Level Kansas City Center
03:58PM 40.4478 -90.7778 330° Northwest 454 522 30,000 -540 Level Kansas City Center
03:59PM 40.5578 -90.8617 330° Northwest 453 521 29,000 -1,020 Descending Chicago Center
04:00PM 40.6656 -90.9444 330° Northwest 450 518 28,000 -1,200 Descending Chicago Center
04:01PM 40.7733 -91.0275 330° Northwest 449 517 26,500 -1,740 Descending Chicago Center
04:02PM 40.8822 -91.1117 330° Northwest 449 517 24,500 -1,620 Descending Chicago Center
04:03PM 40.9892 -91.1953 329° Northwest 449 517 23,200 -1,260 Descending Chicago Center
04:04PM 41.0897 -91.2753 329° Northwest 425 489 22,000 -1,560 Descending Chicago Center
04:05PM 41.2053 -91.3644 330° Northwest 403 464 20,000 -2,100 Descending Chicago Center
04:06PM 41.2919 -91.4339 329° Northwest 388 447 17,700 -2,040 Descending Chicago Center
04:07PM 41.3817 -91.5036 330° Northwest 382 440 15,900 -1,860 Descending Chicago Center
04:08PM 41.4653 -91.5711 329° Northwest 360 414 14,000 -1,620 Descending Chicago Center
04:10PM 41.5539 -91.6075 343° North 347 399 12,600 -1,800 Descending Chicago Center
04:11PM 41.6561 -91.6381 347° North 318 366 10,400 -2,280 Descending Chicago Center
04:12PM 41.7372 -91.6386 360° North 309 356 8,000 -1,980 Descending Chicago Center
04:13PM 41.8042 -91.5828 32° Northeast 289 333 6,400 -1,920 Descending Chicago Center
04:14PM 41.8483 -91.5125 50° Northeast 271 312 4,100 -1,680 Descending Chicago Center
04:15PM 41.8739 -91.4353 66° East 260 299 3,000 -540 Descending Chicago Center
04:16PM 41.8806 -91.4950 279° West 196 226 3,000 -60 Level Chicago Center
04:17PM 41.8819 -91.5550 272° West 176 203 2,900 -420 Descending Chicago Center
04:18PM 41.8831 -91.6083 272° West 161 185 2,200 -660 Descending Chicago Center
04:19PM 41.8853 -91.6653 273° West 152 175 1,600 -600 Descending Chicago Center